sensor_id;sensor_type;location;lat;lon;timestamp;temperature;humidity
12922;DHT22;6528;48.086;16.282;2023-04-01T00:01:04;22.10;27.50
12922;DHT22;6528;48.086;16.282;2023-04-01T00:03:31;22.10;25.50
12922;DHT22;6528;48.086;16.282;2023-04-01T00:06:00;22.10;26.50
12922;DHT22;6528;48.086;16.282;2023-04-01T00:08:28;22.10;26.20
12922;DHT22;6528;48.086;16.282;2023-04-01T00:10:55;22.00;26.50
12922;DHT22;6528;48.086;16.282;2023-04-01T00:13:25;22.00;26.30
12922;DHT22;6528;48.086;16.282;2023-04-01T00:15:54;22.10;26.50
12922;DHT22;6528;48.086;16.282;2023-04-01T00:18:23;22.00;26.70
12922;DHT22;6528;48.086;16.282;2023-04-01T00:20:51;22.00;27.30
12922;DHT22;6528;48.086;16.282;2023-04-01T00:23:19;22.10;27.10
12922;DHT22;6528;48.086;16.282;2023-04-01T00:25:47;22.00;27.70
12922;DHT22;6528;48.086;16.282;2023-04-01T00:28:16;22.00;27.70
12922;DHT22;6528;48.086;16.282;2023-04-01T00:30:44;22.00;28.00
12922;DHT22;6528;48.086;16.282;2023-04-01T00:33:11;22.10;28.30
12922;DHT22;6528;48.086;16.282;2023-04-01T00:35:38;22.00;28.30
12922;DHT22;6528;48.086;16.282;2023-04-01T00:38:05;22.00;29.10
12922;DHT22;6528;48.086;16.282;2023-04-01T00:40:39;22.00;29.10
12922;DHT22;6528;48.086;16.282;2023-04-01T00:43:18;22.00;29.00
12922;DHT22;6528;48.086;16.282;2023-04-01T00:45:47;22.10;29.60
12922;DHT22;6528;48.086;16.282;2023-04-01T00:51:39;22.00;30.00
12922;DHT22;6528;48.086;16.282;2023-04-01T00:54:00;22.00;29.90
12922;DHT22;6528;48.086;16.282;2023-04-01T00:56:32;22.00;30.90
12922;DHT22;6528;48.086;16.282;2023-04-01T00:59:17;22.00;30.20
12922;DHT22;6528;48.086;16.282;2023-04-01T01:01:45;22.00;48.00
12922;DHT22;6528;48.086;16.282;2023-04-01T01:04:26;22.00;30.40
12922;DHT22;6528;48.086;16.282;2023-04-01T01:09:56;22.00;31.70
12922;DHT22;6528;48.086;16.282;2023-04-01T01:12:44;22.00;30.70
12922;DHT22;6528;48.086;16.282;2023-04-01T01:15:25;22.00;31.50
12922;DHT22;6528;48.086;16.282;2023-04-01T01:18:09;22.00;31.10
12922;DHT22;6528;48.086;16.282;2023-04-01T01:24:03;22.00;31.50
12922;DHT22;6528;48.086;16.282;2023-04-01T01:35:08;22.00;33.10
12922;DHT22;6528;48.086;16.282;2023-04-01T01:37:39;22.00;32.80
12922;DHT22;6528;48.086;16.282;2023-04-01T01:40:09;22.00;33.10
12922;DHT22;6528;48.086;16.282;2023-04-01T01:42:40;22.00;32.70
12922;DHT22;6528;48.086;16.282;2023-04-01T01:45:09;22.00;33.10
12922;DHT22;6528;48.086;16.282;2023-04-01T01:47:38;22.00;33.20
12922;DHT22;6528;48.086;16.282;2023-04-01T01:50:07;22.00;33.30
12922;DHT22;6528;48.086;16.282;2023-04-01T01:52:34;22.00;34.10
12922;DHT22;6528;48.086;16.282;2023-04-01T01:55:01;22.00;33.50
12922;DHT22;6528;48.086;16.282;2023-04-01T01:57:37;22.00;33.60
12922;DHT22;6528;48.086;16.282;2023-04-01T02:00:09;22.00;34.20
12922;DHT22;6528;48.086;16.282;2023-04-01T02:02:42;22.00;34.70
12922;DHT22;6528;48.086;16.282;2023-04-01T02:05:14;22.00;34.90
12922;DHT22;6528;48.086;16.282;2023-04-01T02:07:46;22.10;34.80
12922;DHT22;6528;48.086;16.282;2023-04-01T02:10:14;22.00;35.00
12922;DHT22;6528;48.086;16.282;2023-04-01T02:12:44;22.10;35.40
12922;DHT22;6528;48.086;16.282;2023-04-01T02:15:14;22.00;35.30
12922;DHT22;6528;48.086;16.282;2023-04-01T02:17:44;22.00;36.50
12922;DHT22;6528;48.086;16.282;2023-04-01T02:20:15;22.00;36.90
12922;DHT22;6528;48.086;16.282;2023-04-01T02:22:48;22.00;36.90
12922;DHT22;6528;48.086;16.282;2023-04-01T02:25:20;22.00;36.40
12922;DHT22;6528;48.086;16.282;2023-04-01T02:27:47;22.00;35.90
12922;DHT22;6528;48.086;16.282;2023-04-01T02:30:15;22.00;36.40
12922;DHT22;6528;48.086;16.282;2023-04-01T02:32:43;22.00;37.10
12922;DHT22;6528;48.086;16.282;2023-04-01T02:35:14;22.00;37.50
12922;DHT22;6528;48.086;16.282;2023-04-01T02:37:42;22.00;38.30
12922;DHT22;6528;48.086;16.282;2023-04-01T02:40:15;22.10;38.70
12922;DHT22;6528;48.086;16.282;2023-04-01T02:42:43;22.10;38.30
12922;DHT22;6528;48.086;16.282;2023-04-01T02:45:10;22.10;39.50
12922;DHT22;6528;48.086;16.282;2023-04-01T02:47:37;22.10;38.20
12922;DHT22;6528;48.086;16.282;2023-04-01T02:50:05;22.00;38.40
12922;DHT22;6528;48.086;16.282;2023-04-01T02:52:32;22.00;38.90
12922;DHT22;6528;48.086;16.282;2023-04-01T02:54:59;22.10;38.80
12922;DHT22;6528;48.086;16.282;2023-04-01T02:57:25;22.00;39.30
12922;DHT22;6528;48.086;16.282;2023-04-01T02:59:52;22.10;39.90
12922;DHT22;6528;48.086;16.282;2023-04-01T03:02:19;22.10;40.00
12922;DHT22;6528;48.086;16.282;2023-04-01T03:04:46;22.10;39.90
12922;DHT22;6528;48.086;16.282;2023-04-01T03:07:13;22.10;57.60
12922;DHT22;6528;48.086;16.282;2023-04-01T03:09:39;22.00;40.30
12922;DHT22;6528;48.086;16.282;2023-04-01T03:12:07;22.10;40.50
12922;DHT22;6528;48.086;16.282;2023-04-01T03:14:34;22.10;41.00
12922;DHT22;6528;48.086;16.282;2023-04-01T03:17:00;22.10;41.60
12922;DHT22;6528;48.086;16.282;2023-04-01T03:19:27;22.00;41.30
12922;DHT22;6528;48.086;16.282;2023-04-01T03:21:54;22.10;40.50
12922;DHT22;6528;48.086;16.282;2023-04-01T03:24:21;22.00;41.20
12922;DHT22;6528;48.086;16.282;2023-04-01T03:26:48;22.00;41.30
12922;DHT22;6528;48.086;16.282;2023-04-01T03:29:15;22.10;41.70
12922;DHT22;6528;48.086;16.282;2023-04-01T03:31:42;22.00;41.70
12922;DHT22;6528;48.086;16.282;2023-04-01T03:34:09;22.00;41.80
12922;DHT22;6528;48.086;16.282;2023-04-01T03:36:37;22.10;41.70
12922;DHT22;6528;48.086;16.282;2023-04-01T03:39:04;22.00;42.10
12922;DHT22;6528;48.086;16.282;2023-04-01T03:41:32;22.00;42.20
12922;DHT22;6528;48.086;16.282;2023-04-01T03:43:59;22.10;42.50
12922;DHT22;6528;48.086;16.282;2023-04-01T03:46:26;22.00;42.60
12922;DHT22;6528;48.086;16.282;2023-04-01T03:48:53;22.10;42.80
12922;DHT22;6528;48.086;16.282;2023-04-01T03:51:19;22.00;43.00
12922;DHT22;6528;48.086;16.282;2023-04-01T03:53:46;22.10;43.10
12922;DHT22;6528;48.086;16.282;2023-04-01T03:56:13;22.00;42.80
12922;DHT22;6528;48.086;16.282;2023-04-01T03:58:40;22.10;44.40
12922;DHT22;6528;48.086;16.282;2023-04-01T04:01:19;22.10;44.50
12922;DHT22;6528;48.086;16.282;2023-04-01T04:03:48;22.00;43.70
12922;DHT22;6528;48.086;16.282;2023-04-01T04:06:18;22.00;44.10
12922;DHT22;6528;48.086;16.282;2023-04-01T04:08:45;22.10;44.50
12922;DHT22;6528;48.086;16.282;2023-04-01T04:11:12;22.00;44.10
12922;DHT22;6528;48.086;16.282;2023-04-01T04:13:38;22.00;44.70
12922;DHT22;6528;48.086;16.282;2023-04-01T04:16:06;22.10;43.90
12922;DHT22;6528;48.086;16.282;2023-04-01T04:18:33;22.10;44.80
12922;DHT22;6528;48.086;16.282;2023-04-01T04:21:00;22.00;44.50
12922;DHT22;6528;48.086;16.282;2023-04-01T04:23:26;22.00;44.70
12922;DHT22;6528;48.086;16.282;2023-04-01T04:26:00;22.00;45.20
12922;DHT22;6528;48.086;16.282;2023-04-01T04:28:27;22.10;45.60
12922;DHT22;6528;48.086;16.282;2023-04-01T04:30:54;22.10;45.70
12922;DHT22;6528;48.086;16.282;2023-04-01T04:33:22;22.00;45.60
12922;DHT22;6528;48.086;16.282;2023-04-01T04:35:50;22.00;46.40
12922;DHT22;6528;48.086;16.282;2023-04-01T04:38:17;22.00;45.40
12922;DHT22;6528;48.086;16.282;2023-04-01T04:40:44;22.10;46.20
12922;DHT22;6528;48.086;16.282;2023-04-01T04:43:12;22.10;46.40
12922;DHT22;6528;48.086;16.282;2023-04-01T04:45:40;22.00;47.60
12922;DHT22;6528;48.086;16.282;2023-04-01T04:48:15;22.00;47.10
12922;DHT22;6528;48.086;16.282;2023-04-01T04:50:50;22.10;47.30
12922;DHT22;6528;48.086;16.282;2023-04-01T04:53:18;22.10;47.50
12922;DHT22;6528;48.086;16.282;2023-04-01T04:55:49;22.10;46.60
12922;DHT22;6528;48.086;16.282;2023-04-01T04:58:17;22.10;47.50
12922;DHT22;6528;48.086;16.282;2023-04-01T05:00:44;22.00;47.50
12922;DHT22;6528;48.086;16.282;2023-04-01T05:03:12;22.00;47.70
12922;DHT22;6528;48.086;16.282;2023-04-01T05:05:39;22.10;48.50
12922;DHT22;6528;48.086;16.282;2023-04-01T05:08:06;22.10;47.50
12922;DHT22;6528;48.086;16.282;2023-04-01T05:10:33;22.10;48.40
12922;DHT22;6528;48.086;16.282;2023-04-01T05:13:00;22.00;48.00
12922;DHT22;6528;48.086;16.282;2023-04-01T05:15:27;22.10;48.30
12922;DHT22;6528;48.086;16.282;2023-04-01T05:17:53;22.10;48.30
12922;DHT22;6528;48.086;16.282;2023-04-01T05:20:20;22.10;49.30
12922;DHT22;6528;48.086;16.282;2023-04-01T05:22:47;22.10;49.30
12922;DHT22;6528;48.086;16.282;2023-04-01T05:25:14;22.10;49.00
12922;DHT22;6528;48.086;16.282;2023-04-01T05:27:41;22.10;49.00
12922;DHT22;6528;48.086;16.282;2023-04-01T05:30:08;22.10;49.20
12922;DHT22;6528;48.086;16.282;2023-04-01T05:32:35;22.10;49.10
12922;DHT22;6528;48.086;16.282;2023-04-01T05:35:02;22.10;49.60
12922;DHT22;6528;48.086;16.282;2023-04-01T05:37:29;22.10;49.70
12922;DHT22;6528;48.086;16.282;2023-04-01T05:39:56;22.10;49.70
12922;DHT22;6528;48.086;16.282;2023-04-01T05:42:25;22.10;50.00
12922;DHT22;6528;48.086;16.282;2023-04-01T05:44:52;22.10;50.50
12922;DHT22;6528;48.086;16.282;2023-04-01T05:47:19;22.10;50.90
12922;DHT22;6528;48.086;16.282;2023-04-01T05:49:46;22.10;51.50
12922;DHT22;6528;48.086;16.282;2023-04-01T05:52:13;22.10;50.60
12922;DHT22;6528;48.086;16.282;2023-04-01T05:54:40;22.10;52.40
12922;DHT22;6528;48.086;16.282;2023-04-01T05:57:07;22.10;51.40
12922;DHT22;6528;48.086;16.282;2023-04-01T05:59:33;22.10;52.00
12922;DHT22;6528;48.086;16.282;2023-04-01T06:02:01;22.10;51.40
12922;DHT22;6528;48.086;16.282;2023-04-01T06:04:34;22.10;51.80
12922;DHT22;6528;48.086;16.282;2023-04-01T06:07:12;22.10;52.40
12922;DHT22;6528;48.086;16.282;2023-04-01T06:09:39;22.20;52.50
12922;DHT22;6528;48.086;16.282;2023-04-01T06:12:29;22.10;52.30
12922;DHT22;6528;48.086;16.282;2023-04-01T06:15:23;22.20;52.50
12922;DHT22;6528;48.086;16.282;2023-04-01T06:45:36;22.10;55.50
12922;DHT22;6528;48.086;16.282;2023-04-01T06:54:04;22.10;55.40
12922;DHT22;6528;48.086;16.282;2023-04-01T06:56:34;22.10;55.00
12922;DHT22;6528;48.086;16.282;2023-04-01T06:59:20;22.20;55.60
12922;DHT22;6528;48.086;16.282;2023-04-01T07:01:57;22.20;55.60
12922;DHT22;6528;48.086;16.282;2023-04-01T07:04:30;22.10;55.40
12922;DHT22;6528;48.086;16.282;2023-04-01T07:07:01;22.10;56.60
12922;DHT22;6528;48.086;16.282;2023-04-01T07:09:33;22.20;55.90
12922;DHT22;6528;48.086;16.282;2023-04-01T07:12:10;22.20;55.80
12922;DHT22;6528;48.086;16.282;2023-04-01T07:14:40;22.20;55.70
12922;DHT22;6528;48.086;16.282;2023-04-01T07:17:12;22.20;56.10
12922;DHT22;6528;48.086;16.282;2023-04-01T07:20:00;22.20;56.30
12922;DHT22;6528;48.086;16.282;2023-04-01T07:22:36;22.20;57.40
12922;DHT22;6528;48.086;16.282;2023-04-01T07:25:38;22.20;57.00
12922;DHT22;6528;48.086;16.282;2023-04-01T07:28:12;22.20;57.40
12922;DHT22;6528;48.086;16.282;2023-04-01T07:30:59;22.30;57.60
12922;DHT22;6528;48.086;16.282;2023-04-01T07:36:24;22.30;58.00
12922;DHT22;6528;48.086;16.282;2023-04-01T07:50:28;22.40;60.10
12922;DHT22;6528;48.086;16.282;2023-04-01T07:53:14;22.40;59.80
12922;DHT22;6528;48.086;16.282;2023-04-01T08:07:04;22.60;65.00
12922;DHT22;6528;48.086;16.282;2023-04-01T08:09:48;22.60;64.30
12922;DHT22;6528;48.086;16.282;2023-04-01T08:13:02;22.60;66.00
12922;DHT22;6528;48.086;16.282;2023-04-01T08:16:08;22.60;66.40
12922;DHT22;6528;48.086;16.282;2023-04-01T08:23:58;22.80;71.20
12922;DHT22;6528;48.086;16.282;2023-04-01T08:29:15;22.90;75.60
12922;DHT22;6528;48.086;16.282;2023-04-01T08:31:58;23.00;78.50
12922;DHT22;6528;48.086;16.282;2023-04-01T08:34:40;23.00;81.90
12922;DHT22;6528;48.086;16.282;2023-04-01T08:37:16;23.10;84.00
12922;DHT22;6528;48.086;16.282;2023-04-01T09:15:58;23.50;99.90
12922;DHT22;6528;48.086;16.282;2023-04-01T09:26:51;23.50;99.90
12922;DHT22;6528;48.086;16.282;2023-04-01T09:29:41;23.60;99.90
12922;DHT22;6528;48.086;16.282;2023-04-01T09:35:22;23.60;99.90
12922;DHT22;6528;48.086;16.282;2023-04-01T09:40:53;23.60;99.90
12922;DHT22;6528;48.086;16.282;2023-04-01T09:43:43;23.60;99.90
12922;DHT22;6528;48.086;16.282;2023-04-01T09:46:26;23.60;99.90
12922;DHT22;6528;48.086;16.282;2023-04-01T10:00:37;23.80;99.90
12922;DHT22;6528;48.086;16.282;2023-04-01T10:06:17;23.70;99.90
12922;DHT22;6528;48.086;16.282;2023-04-01T10:17:27;23.50;99.90
12922;DHT22;6528;48.086;16.282;2023-04-01T10:23:13;23.30;99.90
12922;DHT22;6528;48.086;16.282;2023-04-01T10:37:03;22.90;99.90
12922;DHT22;6528;48.086;16.282;2023-04-01T10:48:21;22.60;99.90
12922;DHT22;6528;48.086;16.282;2023-04-01T10:56:42;22.30;99.90
12922;DHT22;6528;48.086;16.282;2023-04-01T11:07:38;22.00;96.30
12922;DHT22;6528;48.086;16.282;2023-04-01T11:10:38;21.90;92.00
12922;DHT22;6528;48.086;16.282;2023-04-01T11:39:00;21.60;59.10
12922;DHT22;6528;48.086;16.282;2023-04-01T11:42:01;21.60;54.30
12922;DHT22;6528;48.086;16.282;2023-04-01T11:44:36;21.60;50.90
12922;DHT22;6528;48.086;16.282;2023-04-01T11:50:21;21.60;45.70
12922;DHT22;6528;48.086;16.282;2023-04-01T11:58:49;21.60;40.20
12922;DHT22;6528;48.086;16.282;2023-04-01T12:12:59;21.60;34.30
12922;DHT22;6528;48.086;16.282;2023-04-01T12:18:23;21.50;29.80
12922;DHT22;6528;48.086;16.282;2023-04-01T12:24:01;21.60;26.80
12922;DHT22;6528;48.086;16.282;2023-04-01T12:35:23;21.90;30.00
12922;DHT22;6528;48.086;16.282;2023-04-01T12:37:59;22.00;32.30
12922;DHT22;6528;48.086;16.282;2023-04-01T12:43:49;22.10;35.10
12922;DHT22;6528;48.086;16.282;2023-04-01T12:46:51;22.10;38.40
12922;DHT22;6528;48.086;16.282;2023-04-01T12:52:14;22.20;40.60
12922;DHT22;6528;48.086;16.282;2023-04-01T12:55:06;22.20;41.60
12922;DHT22;6528;48.086;16.282;2023-04-01T13:15:28;22.40;47.60
12922;DHT22;6528;48.086;16.282;2023-04-01T13:18:18;22.50;48.30
12922;DHT22;6528;48.086;16.282;2023-04-01T13:21:12;22.50;49.00
12922;DHT22;6528;48.086;16.282;2023-04-01T13:24:06;22.50;51.30
12922;DHT22;6528;48.086;16.282;2023-04-01T13:29:21;22.50;52.00
12922;DHT22;6528;48.086;16.282;2023-04-01T13:32:05;22.60;52.40
12922;DHT22;6528;48.086;16.282;2023-04-01T13:34:54;22.60;53.20
12922;DHT22;6528;48.086;16.282;2023-04-01T13:43:43;22.60;54.80
12922;DHT22;6528;48.086;16.282;2023-04-01T13:59:59;22.70;57.60
12922;DHT22;6528;48.086;16.282;2023-04-01T14:02:56;22.70;57.90
12922;DHT22;6528;48.086;16.282;2023-04-01T14:05:43;22.70;58.60
12922;DHT22;6528;48.086;16.282;2023-04-01T14:11:20;22.70;59.50
12922;DHT22;6528;48.086;16.282;2023-04-01T14:14:29;22.70;59.30
12922;DHT22;6528;48.086;16.282;2023-04-01T14:28:44;22.70;61.50
12922;DHT22;6528;48.086;16.282;2023-04-01T14:47:50;22.80;70.30
12922;DHT22;6528;48.086;16.282;2023-04-01T14:50:21;22.80;71.70
12922;DHT22;6528;48.086;16.282;2023-04-01T14:58:16;22.80;74.90
12922;DHT22;6528;48.086;16.282;2023-04-01T15:19:31;22.90;83.10
12922;DHT22;6528;48.086;16.282;2023-04-01T15:29:41;23.00;86.50
12922;DHT22;6528;48.086;16.282;2023-04-01T15:38:36;22.90;89.30
12922;DHT22;6528;48.086;16.282;2023-04-01T15:41:16;23.00;90.10
12922;DHT22;6528;48.086;16.282;2023-04-01T16:02:24;23.00;91.50
12922;DHT22;6528;48.086;16.282;2023-04-01T16:14:18;23.00;93.30
12922;DHT22;6528;48.086;16.282;2023-04-01T16:25:39;23.00;93.90
12922;DHT22;6528;48.086;16.282;2023-04-01T16:31:00;23.00;94.40
12922;DHT22;6528;48.086;16.282;2023-04-01T16:34:10;23.00;94.00
12922;DHT22;6528;48.086;16.282;2023-04-01T16:37:03;23.10;94.50
12922;DHT22;6528;48.086;16.282;2023-04-01T16:40:10;23.10;94.90
12922;DHT22;6528;48.086;16.282;2023-04-01T16:42:58;23.10;94.80
12922;DHT22;6528;48.086;16.282;2023-04-01T16:46:12;23.10;95.10
12922;DHT22;6528;48.086;16.282;2023-04-01T16:48:57;23.10;94.90
12922;DHT22;6528;48.086;16.282;2023-04-01T16:51:33;23.10;95.70
12922;DHT22;6528;48.086;16.282;2023-04-01T17:02:42;22.80;97.40
12922;DHT22;6528;48.086;16.282;2023-04-01T17:05:12;22.60;96.30
12922;DHT22;6528;48.086;16.282;2023-04-01T17:07:49;22.50;95.70
12922;DHT22;6528;48.086;16.282;2023-04-01T17:10:37;22.40;94.50
12922;DHT22;6528;48.086;16.282;2023-04-01T17:21:49;22.10;83.80
12922;DHT22;6528;48.086;16.282;2023-04-01T17:27:23;21.90;73.80
12922;DHT22;6528;48.086;16.282;2023-04-01T17:35:25;21.70;62.40
12922;DHT22;6528;48.086;16.282;2023-04-01T17:40:49;21.60;54.30
12922;DHT22;6528;48.086;16.282;2023-04-01T17:43:42;21.60;50.80
12922;DHT22;6528;48.086;16.282;2023-04-01T17:49:07;21.50;44.00
12922;DHT22;6528;48.086;16.282;2023-04-01T17:57:17;21.30;32.80
12922;DHT22;6528;48.086;16.282;2023-04-01T18:00:02;21.30;29.30
12922;DHT22;6528;48.086;16.282;2023-04-01T18:03:00;21.20;26.50
12922;DHT22;6528;48.086;16.282;2023-04-01T18:08:22;21.20;20.60
12922;DHT22;6528;48.086;16.282;2023-04-01T18:23:06;21.00;8.40
12922;DHT22;6528;48.086;16.282;2023-04-01T18:25:49;20.90;4.60
12922;DHT22;6528;48.086;16.282;2023-04-01T18:33:44;20.80;1.00
12922;DHT22;6528;48.086;16.282;2023-04-01T18:36:19;20.70;1.00
12922;DHT22;6528;48.086;16.282;2023-04-01T18:39:11;20.70;1.00
12922;DHT22;6528;48.086;16.282;2023-04-01T18:42:06;20.70;1.00
12922;DHT22;6528;48.086;16.282;2023-04-01T18:44:59;20.60;1.00
12922;DHT22;6528;48.086;16.282;2023-04-01T18:47:54;20.60;1.00
12922;DHT22;6528;48.086;16.282;2023-04-01T18:50:24;20.60;1.00
12922;DHT22;6528;48.086;16.282;2023-04-01T18:55:51;20.80;1.00
12922;DHT22;6528;48.086;16.282;2023-04-01T18:58:50;21.00;1.00
12922;DHT22;6528;48.086;16.282;2023-04-01T19:01:23;21.20;1.00
12922;DHT22;6528;48.086;16.282;2023-04-01T19:04:26;21.40;1.00
12922;DHT22;6528;48.086;16.282;2023-04-01T19:06:53;21.50;1.00
12922;DHT22;6528;48.086;16.282;2023-04-01T19:12:34;21.70;1.30
12922;DHT22;6528;48.086;16.282;2023-04-01T19:20:59;22.00;11.90
12922;DHT22;6528;48.086;16.282;2023-04-01T19:37:45;22.30;26.30
12922;DHT22;6528;48.086;16.282;2023-04-01T19:57:05;22.50;39.30
12922;DHT22;6528;48.086;16.282;2023-04-01T20:02:39;22.50;42.00
12922;DHT22;6528;48.086;16.282;2023-04-01T20:05:33;22.60;43.80
12922;DHT22;6528;48.086;16.282;2023-04-01T20:08:15;22.60;44.50
12922;DHT22;6528;48.086;16.282;2023-04-01T20:14:10;22.60;47.60
12922;DHT22;6528;48.086;16.282;2023-04-01T20:25:26;22.70;53.30
12922;DHT22;6528;48.086;16.282;2023-04-01T20:41:26;22.70;59.10
12922;DHT22;6528;48.086;16.282;2023-04-01T20:49:53;22.80;63.10
12922;DHT22;6528;48.086;16.282;2023-04-01T20:52:32;22.80;63.40
12922;DHT22;6528;48.086;16.282;2023-04-01T20:55:03;22.80;64.60
12922;DHT22;6528;48.086;16.282;2023-04-01T20:57:51;22.80;65.40
12922;DHT22;6528;48.086;16.282;2023-04-01T21:00:28;22.80;66.30
12922;DHT22;6528;48.086;16.282;2023-04-01T21:05:53;22.80;69.90
12922;DHT22;6528;48.086;16.282;2023-04-01T21:08:48;22.80;68.20
12922;DHT22;6528;48.086;16.282;2023-04-01T21:24:57;22.80;72.80
12922;DHT22;6528;48.086;16.282;2023-04-01T21:33:20;22.70;75.40
12922;DHT22;6528;48.086;16.282;2023-04-01T21:41:54;22.70;76.00
12922;DHT22;6528;48.086;16.282;2023-04-01T21:47:16;22.60;77.00
12922;DHT22;6528;48.086;16.282;2023-04-01T21:58:28;22.60;78.60
12922;DHT22;6528;48.086;16.282;2023-04-01T22:06:38;22.60;80.10
12922;DHT22;6528;48.086;16.282;2023-04-01T22:17:53;22.50;80.50
12922;DHT22;6528;48.086;16.282;2023-04-01T22:29:27;22.50;81.60
12922;DHT22;6528;48.086;16.282;2023-04-01T22:35:13;22.50;82.20
12922;DHT22;6528;48.086;16.282;2023-04-01T22:38:18;22.50;81.60
12922;DHT22;6528;48.086;16.282;2023-04-01T22:41:19;22.50;82.40
12922;DHT22;6528;48.086;16.282;2023-04-01T22:43:50;22.50;82.80
12922;DHT22;6528;48.086;16.282;2023-04-01T22:46:23;22.50;82.90
12922;DHT22;6528;48.086;16.282;2023-04-01T22:48:57;22.50;82.60
12922;DHT22;6528;48.086;16.282;2023-04-01T22:51:49;22.50;83.60
12922;DHT22;6528;48.086;16.282;2023-04-01T22:57:28;22.40;97.50
12922;DHT22;6528;48.086;16.282;2023-04-01T23:02:35;22.50;84.50
12922;DHT22;6528;48.086;16.282;2023-04-01T23:05:05;22.40;84.20
12922;DHT22;6528;48.086;16.282;2023-04-01T23:10:49;22.40;84.10
12922;DHT22;6528;48.086;16.282;2023-04-01T23:13:29;22.40;86.20
12922;DHT22;6528;48.086;16.282;2023-04-01T23:15:58;22.40;85.80
12922;DHT22;6528;48.086;16.282;2023-04-01T23:18:51;22.40;85.30
12922;DHT22;6528;48.086;16.282;2023-04-01T23:21:44;22.40;86.10
12922;DHT22;6528;48.086;16.282;2023-04-01T23:24:33;22.40;86.50
12922;DHT22;6528;48.086;16.282;2023-04-01T23:27:08;22.40;86.70
12922;DHT22;6528;48.086;16.282;2023-04-01T23:29:37;22.40;87.10
12922;DHT22;6528;48.086;16.282;2023-04-01T23:32:32;22.40;86.60
12922;DHT22;6528;48.086;16.282;2023-04-01T23:35:00;22.40;87.30
12922;DHT22;6528;48.086;16.282;2023-04-01T23:37:27;22.40;87.10
12922;DHT22;6528;48.086;16.282;2023-04-01T23:39:56;22.40;87.10
12922;DHT22;6528;48.086;16.282;2023-04-01T23:42:39;22.40;87.70
12922;DHT22;6528;48.086;16.282;2023-04-01T23:45:15;22.40;87.60
12922;DHT22;6528;48.086;16.282;2023-04-01T23:47:48;22.40;89.40
12922;DHT22;6528;48.086;16.282;2023-04-01T23:50:19;22.40;89.50
12922;DHT22;6528;48.086;16.282;2023-04-01T23:52:51;22.40;88.90
12922;DHT22;6528;48.086;16.282;2023-04-01T23:55:25;22.40;89.40
